createdAt,value
2022-10-27T00:01:14.243Z,101426.13
2022-10-27T00:03:46.801Z,101430.96
2022-10-27T00:06:18.578Z,101441.38
2022-10-27T00:08:52.018Z,101448.38
2022-10-27T00:11:24.035Z,101451.92
2022-10-27T00:13:57.309Z,101454.34
2022-10-27T00:16:29.116Z,101456.17
2022-10-27T00:19:03.108Z,101456.29
2022-10-27T00:21:34.806Z,101462.12
2022-10-27T00:24:08.636Z,101459.98
2022-10-27T00:26:40.380Z,101464.46
2022-10-27T00:29:12.155Z,101464.08
2022-10-27T00:31:43.859Z,101466.45
2022-10-27T00:34:16.433Z,101469.56
2022-10-27T00:36:48.177Z,101472.21
2022-10-27T00:39:19.940Z,101473.52
2022-10-27T00:41:51.664Z,101476.69
2022-10-27T00:44:39.373Z,101476.79
2022-10-27T00:47:21.611Z,101480.27
2022-10-27T00:49:59.370Z,101479.89
2022-10-27T00:52:35.709Z,101481.37
2022-10-27T00:55:13.251Z,101476.87
2022-10-27T00:57:46.618Z,101475.16
2022-10-27T01:00:24.713Z,101474.17
2022-10-27T01:02:57.051Z,101475.55
2022-10-27T01:05:33.774Z,101477.86
2022-10-27T01:08:07.462Z,101479.89
2022-10-27T01:10:42.408Z,101480.82
2022-10-27T01:13:14.372Z,101482.24
2022-10-27T01:15:57.553Z,101481.58
2022-10-27T01:18:36.685Z,101481.38
2022-10-27T01:21:39.193Z,101482.02
2022-10-27T01:24:36.790Z,101485.55
2022-10-27T01:27:32.900Z,101480.98
2022-10-27T01:30:14.589Z,101479.66
2022-10-27T01:33:03.242Z,101477.71
2022-10-27T01:35:45.201Z,101481.58
2022-10-27T01:38:22.574Z,101480.48
2022-10-27T01:41:00.739Z,101483.20
2022-10-27T01:43:40.899Z,101481.51
2022-10-27T01:46:14.872Z,101482.66
2022-10-27T01:48:50.732Z,101483.35
2022-10-27T01:51:22.496Z,101488.31
2022-10-27T01:53:57.837Z,101494.80
2022-10-27T01:56:49.141Z,101500.86
2022-10-27T01:59:35.778Z,101499.58
2022-10-27T02:02:17.478Z,101506.00
2022-10-27T02:05:01.634Z,101509.83
2022-10-27T02:07:47.832Z,101509.30
2022-10-27T02:10:32.812Z,101510.02
2022-10-27T02:13:06.196Z,101511.79
2022-10-27T02:15:42.086Z,101512.03
2022-10-27T02:18:18.291Z,101508.10
2022-10-27T02:20:57.399Z,101511.23
2022-10-27T02:23:30.068Z,101513.88
2022-10-27T02:26:09.781Z,101511.45
2022-10-27T02:28:48.322Z,101511.80
2022-10-27T02:31:28.637Z,101514.29
2022-10-27T02:34:03.385Z,101521.30
2022-10-27T02:36:35.585Z,101520.20
2022-10-27T02:39:07.255Z,101523.00
2022-10-27T02:41:41.984Z,101526.82
2022-10-27T02:44:13.656Z,101523.48
2022-10-27T02:46:47.649Z,101526.38
2022-10-27T02:49:21.301Z,101526.31
2022-10-27T02:51:57.013Z,101524.73
2022-10-27T02:54:28.734Z,101526.41
2022-10-27T02:57:01.068Z,101525.33
2022-10-27T02:59:32.760Z,101524.44
2022-10-27T03:02:05.367Z,101528.45
2022-10-27T03:04:37.226Z,101529.15
2022-10-27T03:07:09.076Z,101531.05
2022-10-27T03:09:40.725Z,101532.09
2022-10-27T03:12:16.202Z,101536.58
2022-10-27T03:14:47.905Z,101537.02
2022-10-27T03:17:19.587Z,101540.85
2022-10-27T03:19:51.368Z,101539.77
2022-10-27T03:22:23.936Z,101545.13
2022-10-27T03:24:55.623Z,101549.06
2022-10-27T03:27:27.415Z,101552.77
2022-10-27T03:29:59.116Z,101552.32
2022-10-27T03:32:31.607Z,101550.50
2022-10-27T03:35:03.450Z,101549.33
2022-10-27T03:37:35.245Z,101551.22
2022-10-27T03:40:11.877Z,101553.70
2022-10-27T03:42:45.287Z,101561.05
2022-10-27T03:45:17.457Z,101562.70
2022-10-27T03:47:49.272Z,101561.61
2022-10-27T03:50:22.417Z,101557.58
2022-10-27T03:52:55.058Z,101553.31
2022-10-27T03:55:27.076Z,101555.50
2022-10-27T03:57:58.915Z,101552.54
2022-10-27T04:00:31.649Z,101556.39
2022-10-27T04:03:05.987Z,101557.27
2022-10-27T04:05:37.725Z,101560.69
2022-10-27T04:08:09.533Z,101561.75
2022-10-27T04:10:41.207Z,101561.48
2022-10-27T04:13:12.952Z,101562.71
2022-10-27T04:15:44.633Z,101568.55
2022-10-27T04:18:16.790Z,101572.36
2022-10-27T04:20:48.461Z,101574.52
2022-10-27T04:23:20.997Z,101580.17
2022-10-27T04:25:52.640Z,101581.33
2022-10-27T04:28:24.520Z,101584.60
2022-10-27T04:30:56.282Z,101583.77
2022-10-27T04:33:29.248Z,101584.07
2022-10-27T04:36:01.304Z,101582.19
2022-10-27T04:38:34.883Z,101585.63
2022-10-27T04:41:09.086Z,101579.29
2022-10-27T04:43:41.666Z,101583.30
2022-10-27T04:46:13.482Z,101583.57
2022-10-27T04:48:45.173Z,101587.72
2022-10-27T04:51:19.341Z,101591.71
2022-10-27T04:53:55.072Z,101602.30
2022-10-27T04:56:26.788Z,101603.08
2022-10-27T04:58:58.755Z,101609.59
2022-10-27T05:01:30.609Z,101616.55
2022-10-27T05:04:03.255Z,101619.90
2022-10-27T05:06:34.908Z,101619.20
2022-10-27T05:09:06.696Z,101619.65
2022-10-27T05:11:38.448Z,101618.11
2022-10-27T05:14:11.023Z,101624.76
2022-10-27T05:16:42.714Z,101628.84
2022-10-27T05:19:14.440Z,101626.29
2022-10-27T05:21:46.143Z,101628.73
2022-10-27T05:24:17.940Z,101625.98
2022-10-27T05:26:49.612Z,101623.27
2022-10-27T05:29:21.485Z,101620.36
2022-10-27T05:31:53.179Z,101623.80
2022-10-27T05:34:24.958Z,101623.23
2022-10-27T05:36:56.637Z,101625.32
2022-10-27T05:39:28.497Z,101624.75
2022-10-27T05:42:00.336Z,101626.51
2022-10-27T05:44:32.901Z,101634.16
2022-10-27T05:47:04.825Z,101637.63
2022-10-27T05:49:36.546Z,101642.71
2022-10-27T05:52:08.312Z,101651.02
2022-10-27T05:54:40.178Z,101653.67
2022-10-27T05:57:11.994Z,101652.48
2022-10-27T05:59:43.746Z,101659.16
2022-10-27T06:02:15.744Z,101664.10
2022-10-27T06:04:47.568Z,101665.58
2022-10-27T06:07:19.258Z,101662.31
2022-10-27T06:09:51.061Z,101659.52
2022-10-27T06:12:22.727Z,101663.94
2022-10-27T06:14:54.466Z,101659.71
2022-10-27T06:17:26.224Z,101656.86
2022-10-27T06:19:57.983Z,101660.22
2022-10-27T06:22:29.825Z,101667.83
2022-10-27T06:25:01.547Z,101679.16
2022-10-27T06:27:34.496Z,101681.41
2022-10-27T06:30:15.687Z,101681.44
2022-10-27T06:32:51.710Z,101681.80
2022-10-27T06:35:24.530Z,101685.27
2022-10-27T06:37:56.213Z,101694.33
2022-10-27T06:40:30.764Z,101702.10
2022-10-27T06:43:06.907Z,101695.95
2022-10-27T06:45:39.913Z,101701.25
2022-10-27T06:48:12.886Z,101698.48
2022-10-27T06:50:46.303Z,101699.34
2022-10-27T06:53:18.200Z,101701.71
2022-10-27T06:55:49.964Z,101705.84
2022-10-27T06:58:21.623Z,101714.93
2022-10-27T07:00:54.935Z,101714.02
2022-10-27T07:03:26.721Z,101722.28
2022-10-27T07:06:00.599Z,101726.34
2022-10-27T07:08:32.329Z,101732.45
2022-10-27T07:11:05.835Z,101738.02
2022-10-27T07:13:37.711Z,101738.55
2022-10-27T07:16:11.877Z,101742.63
2022-10-27T07:18:43.589Z,101745.67
2022-10-27T07:21:16.130Z,101749.96
2022-10-27T07:23:47.978Z,101751.20
2022-10-27T07:26:19.749Z,101758.52
2022-10-27T07:28:51.466Z,101758.08
2022-10-27T07:31:24.052Z,101757.74
2022-10-27T07:33:55.720Z,101761.70
2022-10-27T07:36:27.436Z,101768.64
2022-10-27T07:38:59.420Z,101771.33
2022-10-27T07:41:31.121Z,101769.08
2022-10-27T07:44:02.891Z,101767.64
2022-10-27T07:46:34.668Z,101764.84
2022-10-27T07:49:06.359Z,101774.23
2022-10-27T07:51:38.877Z,101775.21
2022-10-27T07:54:10.843Z,101772.31
2022-10-27T07:56:42.651Z,101769.16
2022-10-27T08:01:51.908Z,101768.52
2022-10-27T08:04:24.719Z,101765.27
2022-10-27T08:06:56.453Z,101765.65
2022-10-27T08:09:28.217Z,101764.62
2022-10-27T08:12:01.586Z,101764.61
2022-10-27T08:14:33.571Z,101763.77
2022-10-27T08:17:05.381Z,101764.09
2022-10-27T08:19:37.106Z,101770.22
2022-10-27T08:22:13.051Z,101774.55
2022-10-27T08:24:46.362Z,101780.30
2022-10-27T08:27:18.296Z,101782.06
2022-10-27T08:29:50.081Z,101783.92
2022-10-27T08:32:21.842Z,101788.44
2022-10-27T08:34:53.808Z,101787.00
2022-10-27T08:37:25.609Z,101792.94
2022-10-27T08:39:57.385Z,101792.92
2022-10-27T08:42:44.139Z,101794.96
2022-10-27T08:45:20.644Z,101798.02
2022-10-27T08:47:54.804Z,101794.35
2022-10-27T08:50:28.609Z,101792.23
2022-10-27T08:53:05.180Z,101790.58
2022-10-27T08:55:41.725Z,101790.93
2022-10-27T08:58:22.445Z,101790.61
2022-10-27T09:01:00.313Z,101793.73
2022-10-27T09:03:53.304Z,101795.34
2022-10-27T09:06:30.209Z,101793.61
2022-10-27T09:09:11.323Z,101793.65
2022-10-27T09:11:54.474Z,101795.31
2022-10-27T09:14:45.651Z,101794.36
2022-10-27T09:17:21.304Z,101800.11
2022-10-27T09:20:01.417Z,101800.11
2022-10-27T09:25:21.075Z,101808.29
2022-10-27T09:27:55.779Z,101816.95
2022-10-27T09:30:34.359Z,101819.02
2022-10-27T09:33:15.122Z,101816.13
2022-10-27T09:35:46.949Z,101814.56
2022-10-27T09:38:22.717Z,101817.09
2022-10-27T09:40:56.220Z,101815.09
2022-10-27T09:43:28.138Z,101815.31
2022-10-27T09:46:06.045Z,101812.86
2022-10-27T09:48:38.061Z,101815.17
2022-10-27T09:51:20.564Z,101814.70
2022-10-27T09:53:53.994Z,101815.73
2022-10-27T09:56:29.586Z,101820.89
2022-10-27T09:59:02.933Z,101824.45
2022-10-27T10:01:51.088Z,101825.86
2022-10-27T10:04:27.031Z,101823.48
2022-10-27T10:07:00.714Z,101824.79
2022-10-27T10:09:34.409Z,101824.77
2022-10-27T10:12:23.878Z,101827.48
2022-10-27T10:15:22.682Z,101829.54
2022-10-27T10:17:57.884Z,101827.50
2022-10-27T10:23:25.514Z,101821.42
2022-10-27T10:25:59.849Z,101818.77
2022-10-27T10:28:36.945Z,101819.82
2022-10-27T10:31:13.088Z,101816.21
2022-10-27T10:33:48.308Z,101821.33
2022-10-27T10:36:27.437Z,101816.48
2022-10-27T10:39:01.128Z,101820.34
2022-10-27T10:41:33.305Z,101825.80
2022-10-27T10:44:14.819Z,101821.58
2022-10-27T10:46:55.745Z,101815.48
2022-10-27T10:49:31.916Z,101816.02
2022-10-27T10:52:07.760Z,101817.29
2022-10-27T10:54:44.725Z,101820.19
2022-10-27T10:57:33.081Z,101819.23
2022-10-27T11:00:23.106Z,101821.77
2022-10-27T11:02:59.500Z,101823.16
2022-10-27T11:05:35.383Z,101823.98
2022-10-27T11:08:28.026Z,101829.11
2022-10-27T11:11:02.869Z,101827.95
2022-10-27T11:13:43.054Z,101828.48
2022-10-27T11:16:16.125Z,101833.35
2022-10-27T11:18:53.703Z,101830.71
2022-10-27T11:21:37.874Z,101832.33
2022-10-27T11:24:17.528Z,101829.13
2022-10-27T11:26:56.925Z,101826.96
2022-10-27T11:29:35.082Z,101824.52
2022-10-27T11:32:15.501Z,101822.39
2022-10-27T11:34:57.464Z,101820.89
2022-10-27T11:37:36.513Z,101820.88
2022-10-27T11:40:16.825Z,101823.20
2022-10-27T11:42:56.617Z,101823.48
2022-10-27T11:45:32.833Z,101818.61
2022-10-27T11:48:11.597Z,101817.63
2022-10-27T11:50:54.864Z,101817.40
2022-10-27T11:53:27.424Z,101819.81
2022-10-27T11:56:15.026Z,101818.40
2022-10-27T11:58:56.697Z,101817.02
2022-10-27T12:01:41.623Z,101816.52
2022-10-27T12:04:25.584Z,101817.89
2022-10-27T12:07:05.661Z,101817.86
2022-10-27T12:09:58.793Z,101818.98
2022-10-27T12:12:36.509Z,101817.19
2022-10-27T12:15:16.111Z,101818.15
2022-10-27T12:17:56.768Z,101821.11
2022-10-27T12:20:45.550Z,101816.45
2022-10-27T12:23:23.220Z,101813.15
2022-10-27T12:26:01.378Z,101816.04
2022-10-27T12:28:35.645Z,101812.49
2022-10-27T12:31:14.409Z,101810.00
2022-10-27T12:33:50.462Z,101806.89
2022-10-27T12:36:28.117Z,101803.13
2022-10-27T12:39:13.077Z,101807.20
2022-10-27T12:41:54.497Z,101810.39
2022-10-27T12:44:36.815Z,101803.34
2022-10-27T12:47:26.106Z,101803.88
2022-10-27T12:53:30.473Z,101788.02
2022-10-27T12:56:07.134Z,101792.05
2022-10-27T12:58:50.687Z,101792.67
2022-10-27T13:01:38.971Z,101786.95
2022-10-27T13:04:54.885Z,101787.84
2022-10-27T13:07:42.917Z,101788.15
2022-10-27T13:10:40.657Z,101782.70
2022-10-27T13:13:36.977Z,101780.65
2022-10-27T13:16:26.796Z,101778.47
2022-10-27T13:19:16.926Z,101779.14
2022-10-27T13:21:53.191Z,101778.42
2022-10-27T13:24:33.867Z,101775.92
2022-10-27T13:27:07.467Z,101769.92
2022-10-27T13:29:44.928Z,101770.65
2022-10-27T13:32:39.453Z,101769.77
2022-10-27T13:35:31.361Z,101768.20
2022-10-27T13:38:29.658Z,101766.23
2022-10-27T13:41:01.213Z,101763.52
2022-10-27T13:43:59.129Z,101764.03
2022-10-27T13:47:07.215Z,101761.87
2022-10-27T13:50:00.991Z,101762.98
2022-10-27T13:52:34.037Z,101765.05
2022-10-27T13:55:35.905Z,101765.61
2022-10-27T13:58:37.312Z,101767.12
2022-10-27T14:01:29.927Z,101766.98
2022-10-27T14:04:41.045Z,101765.33
2022-10-27T14:07:17.305Z,101769.92
2022-10-27T14:09:51.961Z,101770.92
2022-10-27T14:12:32.846Z,101772.09
2022-10-27T14:15:24.342Z,101774.48
2022-10-27T14:17:58.226Z,101775.48
2022-10-27T14:20:36.718Z,101777.35
2022-10-27T14:23:13.036Z,101774.08
2022-10-27T14:25:44.801Z,101775.38
2022-10-27T14:28:19.518Z,101773.88
2022-10-27T14:31:13.418Z,101779.14
2022-10-27T14:33:58.659Z,101780.39
2022-10-27T14:36:33.378Z,101782.64
2022-10-27T14:39:17.225Z,101779.86
2022-10-27T14:41:50.531Z,101780.01
2022-10-27T14:44:35.396Z,101780.22
2022-10-27T14:47:14.566Z,101779.67
2022-10-27T14:49:50.771Z,101777.20
2022-10-27T14:52:28.975Z,101775.41
2022-10-27T14:55:01.438Z,101775.01
2022-10-27T14:57:36.259Z,101776.79
2022-10-27T15:00:28.498Z,101773.19
2022-10-27T15:03:03.015Z,101775.39
2022-10-27T15:05:42.119Z,101775.11
2022-10-27T15:08:36.004Z,101772.83
2022-10-27T15:11:12.297Z,101769.16
2022-10-27T15:13:45.879Z,101766.47
2022-10-27T15:18:56.021Z,101765.00
2022-10-27T15:21:29.495Z,101763.94
2022-10-27T15:24:10.275Z,101760.23
2022-10-27T15:26:42.917Z,101759.45
2022-10-27T15:29:24.327Z,101755.65
2022-10-27T15:32:01.510Z,101757.59
2022-10-27T15:34:37.626Z,101760.54
2022-10-27T15:37:31.524Z,101760.02
2022-10-27T15:40:23.530Z,101762.35
2022-10-27T15:42:57.074Z,101761.66
2022-10-27T15:45:37.867Z,101759.49
2022-10-27T15:48:31.965Z,101758.84
2022-10-27T15:51:06.630Z,101757.17
2022-10-27T15:53:50.904Z,101755.20
2022-10-27T15:56:39.138Z,101757.80
2022-10-27T15:59:19.210Z,101756.52
2022-10-27T16:01:52.105Z,101759.44
2022-10-27T16:04:30.070Z,101755.62
2022-10-27T16:07:33.049Z,101755.92
2022-10-27T16:10:16.948Z,101754.30
2022-10-27T16:12:51.471Z,101751.63
2022-10-27T16:15:26.163Z,101754.34
2022-10-27T16:18:00.306Z,101754.78
2022-10-27T16:20:41.766Z,101755.38
2022-10-27T16:23:17.490Z,101756.36
2022-10-27T16:25:50.387Z,101756.65
2022-10-27T16:28:23.900Z,101754.54
2022-10-27T16:30:56.527Z,101756.02
2022-10-27T16:33:28.069Z,101755.05
2022-10-27T16:36:02.518Z,101752.58
2022-10-27T16:38:34.110Z,101751.59
2022-10-27T16:41:06.754Z,101752.05
2022-10-27T16:43:39.016Z,101752.98
2022-10-27T16:46:10.823Z,101754.91
2022-10-27T16:48:42.735Z,101750.46
2022-10-27T16:51:17.685Z,101748.27
2022-10-27T16:53:51.920Z,101750.58
2022-10-27T16:56:24.580Z,101753.73
2022-10-27T16:58:56.108Z,101754.05
2022-10-27T17:01:29.071Z,101751.39
2022-10-27T17:04:04.292Z,101757.15
2022-10-27T17:06:36.433Z,101756.91
2022-10-27T17:09:08.110Z,101752.45
2022-10-27T17:11:40.944Z,101750.65
2022-10-27T17:14:12.873Z,101746.38
2022-10-27T17:16:44.625Z,101747.98
2022-10-27T17:19:16.344Z,101749.05
2022-10-27T17:21:51.358Z,101748.98
2022-10-27T17:24:22.957Z,101749.71
2022-10-27T17:26:54.569Z,101749.89
2022-10-27T17:29:26.149Z,101754.67
2022-10-27T17:31:58.497Z,101754.80
2022-10-27T17:34:32.183Z,101754.26
2022-10-27T17:37:03.838Z,101755.02
2022-10-27T17:39:37.632Z,101755.98
2022-10-27T17:42:09.937Z,101755.27
2022-10-27T17:44:41.520Z,101749.28
2022-10-27T17:47:13.425Z,101747.94
2022-10-27T17:49:45.069Z,101748.48
2022-10-27T17:52:18.044Z,101744.17
2022-10-27T17:54:49.892Z,101746.02
2022-10-27T17:57:21.584Z,101747.96
2022-10-27T17:59:53.358Z,101748.08
2022-10-27T18:02:26.778Z,101748.14
2022-10-27T18:04:58.554Z,101756.39
2022-10-27T18:07:32.831Z,101756.78
2022-10-27T18:10:04.918Z,101753.52
2022-10-27T18:12:37.579Z,101756.42
2022-10-27T18:15:34.572Z,101759.02
2022-10-27T18:18:03.234Z,101757.42
2022-10-27T18:20:35.763Z,101754.44
2022-10-27T18:23:08.870Z,101751.47
2022-10-27T18:25:43.075Z,101748.65
2022-10-27T18:28:14.717Z,101748.66
2022-10-27T18:30:46.319Z,101751.93
2022-10-27T18:33:18.060Z,101750.20
2022-10-27T18:35:50.596Z,101752.73
2022-10-27T18:38:22.455Z,101751.60
2022-10-27T18:40:59.592Z,101749.92
2022-10-27T18:43:31.157Z,101748.59
2022-10-27T18:46:04.075Z,101746.29
2022-10-27T18:48:37.563Z,101749.65
2022-10-27T18:51:13.456Z,101747.05
2022-10-27T18:53:46.389Z,101746.42
2022-10-27T18:56:18.294Z,101749.66
2022-10-27T18:58:56.261Z,101746.30
2022-10-27T19:01:29.445Z,101747.25
2022-10-27T19:04:07.793Z,101744.28
2022-10-27T19:06:40.217Z,101741.27
2022-10-27T19:09:14.477Z,101743.05
2022-10-27T19:11:47.675Z,101743.09
2022-10-27T19:14:20.080Z,101741.84
2022-10-27T19:16:55.576Z,101742.88
2022-10-27T19:19:29.048Z,101740.98
2022-10-27T19:22:03.286Z,101740.52
2022-10-27T19:24:35.316Z,101741.20
2022-10-27T19:27:07.408Z,101745.20
2022-10-27T19:29:39.476Z,101747.48
2022-10-27T19:32:12.027Z,101751.11
2022-10-27T19:34:49.920Z,101752.16
2022-10-27T19:37:24.731Z,101752.70
2022-10-27T19:39:56.580Z,101750.20
2022-10-27T19:42:28.563Z,101748.54
2022-10-27T19:45:02.429Z,101743.85
2022-10-27T19:47:36.285Z,101737.27
2022-10-27T19:50:19.175Z,101734.71
2022-10-27T19:52:54.515Z,101728.81
2022-10-27T19:55:26.487Z,101728.84
2022-10-27T19:57:58.472Z,101735.55
2022-10-27T20:00:37.787Z,101731.42
2022-10-27T20:03:09.667Z,101732.05
2022-10-27T20:05:41.621Z,101726.79
2022-10-27T20:08:13.507Z,101726.71
2022-10-27T20:10:47.160Z,101721.95
2022-10-27T20:13:19.013Z,101722.16
2022-10-27T20:15:50.537Z,101717.61
2022-10-27T20:18:24.791Z,101714.60
2022-10-27T20:20:59.055Z,101715.02
2022-10-27T20:23:30.758Z,101714.83
2022-10-27T20:26:27.864Z,101717.07
2022-10-27T20:28:56.181Z,101712.13
2022-10-27T20:31:36.221Z,101712.90
2022-10-27T20:34:10.383Z,101711.56
2022-10-27T20:36:43.348Z,101709.97
2022-10-27T20:39:15.741Z,101712.63
2022-10-27T20:41:47.375Z,101710.86
2022-10-27T20:44:18.977Z,101710.61
2022-10-27T20:46:52.154Z,101711.61
2022-10-27T20:49:23.720Z,101710.26
2022-10-27T20:51:55.333Z,101710.75
2022-10-27T20:54:27.024Z,101712.36
2022-10-27T20:56:58.627Z,101713.56
2022-10-27T20:59:30.579Z,101712.02
2022-10-27T21:02:02.401Z,101712.06
2022-10-27T21:04:34.148Z,101709.17
2022-10-27T21:07:05.843Z,101710.48
2022-10-27T21:09:39.478Z,101711.44
2022-10-27T21:12:12.140Z,101715.69
2022-10-27T21:14:43.657Z,101718.16
2022-10-27T21:17:15.245Z,101719.30
2022-10-27T21:19:46.754Z,101715.36
2022-10-27T21:22:19.233Z,101718.75
2022-10-27T21:24:50.784Z,101712.80
2022-10-27T21:27:22.343Z,101707.45
2022-10-27T21:30:15.102Z,101705.70
2022-10-27T21:32:48.344Z,101696.86
2022-10-27T21:35:20.464Z,101689.39
2022-10-27T21:37:52.231Z,101689.61
2022-10-27T21:40:24.179Z,101696.38
2022-10-27T21:42:59.196Z,101698.83
2022-10-27T21:45:30.731Z,101692.27
2022-10-27T21:48:02.462Z,101688.94
2022-10-27T21:50:38.704Z,101691.10
2022-10-27T21:53:10.304Z,101685.55
2022-10-27T21:55:42.523Z,101678.09
2022-10-27T21:58:14.072Z,101670.95
2022-10-27T22:00:45.665Z,101666.80
2022-10-27T22:03:18.051Z,101671.20
2022-10-27T22:05:55.747Z,101673.14
2022-10-27T22:08:27.365Z,101668.70
2022-10-27T22:11:05.216Z,101665.23
2022-10-27T22:13:38.137Z,101663.71
2022-10-27T22:16:13.220Z,101659.29
2022-10-27T22:18:46.882Z,101657.42
2022-10-27T22:21:18.826Z,101654.55
2022-10-27T22:23:50.412Z,101657.38
2022-10-27T22:26:26.450Z,101663.63
2022-10-27T22:28:58.267Z,101655.97
2022-10-27T22:31:32.604Z,101645.64
2022-10-27T22:34:06.048Z,101637.55
2022-10-27T22:36:41.031Z,101635.62
2022-10-27T22:39:15.272Z,101636.05
2022-10-27T22:41:47.209Z,101635.77
2022-10-27T22:44:20.495Z,101636.14
2022-10-27T22:46:52.057Z,101633.20
2022-10-27T22:49:23.576Z,101630.25
2022-10-27T22:52:02.195Z,101626.37
2022-10-27T22:54:34.641Z,101623.45
2022-10-27T22:57:06.491Z,101623.88
2022-10-27T22:59:38.098Z,101619.80
2022-10-27T23:02:09.878Z,101621.05
2022-10-27T23:04:42.282Z,101624.00
2022-10-27T23:07:13.852Z,101622.38
2022-10-27T23:09:45.411Z,101616.50
2022-10-27T23:12:17.055Z,101615.36
2022-10-27T23:14:51.332Z,101614.15
2022-10-27T23:17:23.073Z,101614.48
2022-10-27T23:19:54.640Z,101619.77
2022-10-27T23:22:26.263Z,101617.66
2022-10-27T23:24:59.555Z,101610.30
2022-10-27T23:27:31.095Z,101609.24
2022-10-27T23:30:02.691Z,101604.50
2022-10-27T23:32:34.276Z,101601.56
2022-10-27T23:35:07.175Z,101601.46
2022-10-27T23:37:38.975Z,101594.36
2022-10-27T23:40:21.841Z,101584.70
2022-10-27T23:42:54.873Z,101572.34
2022-10-27T23:45:26.768Z,101577.52
2022-10-27T23:47:58.259Z,101572.57
2022-10-27T23:50:33.047Z,101571.12
2022-10-27T23:53:04.728Z,101576.50
2022-10-27T23:55:36.844Z,101578.88
2022-10-27T23:58:08.364Z,101578.10
